Nocc Atlantic — LAHZ7 — position and weather

sailwx.info

Track history (hours):
 
Tides and Currents Weather Stations Pressure Air Temp Water Temp Dewpoint Dewpoint Depression Visibility Wind Speed Wind Dir Waves Ship Positions

Nocc Atlantic

Last reported at 2017-Nov-08 05:59 UTC. Time now 2017-Nov-18 01:11 UTC.
Position N 31°56' W 117°50'.
Warning: this ship's position is 9 days out of date.

Length 200 m; draft 8.3 m.

Type: Cargo ship. MMSI: 259976000.

Date/timePositionNaut miles runAvg speedWind from/ knotsBaromVisibWave heightAir tempDewpointWater temp
2017-Nov-08 05:59N 31°56' W 117°50'4117.1
2017-Nov-08 03:37N 32°28' W 117°22'217.3
2017-Nov-08 03:29N 32°30' W 117°20'917.2
2017-Nov-08 03:00N 32°37' W 117°14'511.2
2017-Nov-08 02:30N 32°42' W 117°13'6 9.7
2017-Nov-08 01:54N 32°39' W 117°07'0 0.1
2017-Nov-07 23:15N 32°39' W 117°07'0 0.0
2017-Nov-07 22:57N 32°39' W 117°07'0 0.0
2017-Nov-07 16:51N 32°39' W 117°07'0 0.0
2017-Nov-07 14:09N 32°39' W 117°07'0 0.7
2017-Nov-07 14:00N 32°39' W 117°07'2 5.0
2017-Nov-07 13:30N 32°41' W 117°09'4 8.1
2017-Nov-07 13:00N 32°41' W 117°14'4 7.7
2017-Nov-07 12:29N 32°37' W 117°14'3 6.5
2017-Nov-07 12:00N 32°37' W 117°18'4 8.6
2017-Nov-07 11:30N 32°39' W 117°22'510.9
2017-Nov-07 11:00N 32°41' W 117°28'611.2
2017-Nov-07 10:30N 32°44' W 117°34'510.9
2017-Nov-07 10:00N 32°46' W 117°40'510.9
2017-Nov-07 09:30N 32°49' W 117°46'510.9
2017-Nov-07 09:00N 32°51' W 117°52'611.4
2017-Nov-07 08:30N 32°53' W 117°58'511.0
2017-Nov-07 08:00N 32°56' W 118°04'611.4
2017-Nov-07 07:30N 32°58' W 118°10'611.3
2017-Nov-07 06:56N 33°01' W 118°17'511.3
2017-Nov-07 06:30N 33°03' W 118°22'1311.2
2017-Nov-07 05:20N 33°08' W 118°36'411.2
2017-Nov-07 05:00N 33°09' W 118°41'611.1
2017-Nov-07 04:27N 33°11' W 118°48'511.2
2017-Nov-07 04:00N 33°13' W 118°53'711.2
2017-Nov-07 03:23N 33°15' W 119°01'411.2
2017-Nov-07 03:00N 33°16' W 119°06'611.8
2017-Nov-07 02:30N 33°18' W 119°13'612.1
2017-Nov-07 02:00N 33°20' W 119°19'611.8
2017-Nov-07 01:30N 33°23' W 119°26'611.6
2017-Nov-07 01:00N 33°25' W 119°32'510.2
2017-Nov-07 00:30N 33°28' W 119°38'713.9
2017-Nov-07 00:00N 33°31' W 119°45'713.4
2017-Nov-06 23:30N 33°34' W 119°52'713.3
2017-Nov-06 23:00N 33°37' W 119°59'713.3
2017-Nov-06 22:30N 33°40' W 120°07'813.2
2017-Nov-06 21:52N 33°43' W 120°16'513.2
2017-Nov-06 21:29N 33°45' W 120°21'613.0
2017-Nov-06 21:00N 33°48' W 120°28'612.9
2017-Nov-06 20:30N 33°51' W 120°35'27814.6
2017-Nov-06 01:26N 37°43' W 123°43'715.6
2017-Nov-06 00:58N 37°49' W 123°48'715.6
2017-Nov-06 00:30N 37°55' W 123°53'815.5
2017-Nov-06 00:00N 38°02' W 123°58'1015.7
2017-Nov-05 23:24N 38°11' W 124°03'615.9
2017-Nov-05 23:00N 38°16' W 124°07'816.1
2017-Nov-05 22:30N 38°23' W 124°12'43914.8
2017-Nov-04 16:49N 45°39' W 125°18'515.6
2017-Nov-04 16:30N 45°44' W 125°18'815.7
2017-Nov-04 16:01N 45°52' W 125°18'815.4
2017-Nov-04 15:30N 45°59' W 125°18'815.6
2017-Nov-04 15:00N 46°07' W 125°18'815.8
2017-Nov-04 14:31N 46°15' W 125°18'815.6
2017-Nov-04 14:00N 46°23' W 125°18'815.6
2017-Nov-04 13:28N 46°31' W 125°18'715.7
2017-Nov-04 13:00N 46°39' W 125°18'815.5
2017-Nov-04 12:30N 46°46' W 125°18'815.6
2017-Nov-04 12:00N 46°54' W 125°18'8215.2
2017-Nov-04 06:35N 48°16' W 125°14'217.4
2017-Nov-04 06:29N 48°18' W 125°13'715.0
2017-Nov-04 05:59N 48°25' W 125°07'714.7
2017-Nov-04 05:30N 48°31' W 125°02'816.6
2017-Nov-04 05:00N 48°30' W 124°49'917.4
2017-Nov-04 04:30N 48°29' W 124°36'918.0
2017-Nov-04 04:00N 48°25' W 124°24'918.1
2017-Nov-04 03:30N 48°21' W 124°11'918.3
2017-Nov-04 03:00N 48°18' W 123°59'917.9
2017-Nov-04 02:30N 48°16' W 123°45'918.3
2017-Nov-04 02:00N 48°15' W 123°32'816.7
2017-Nov-04 01:30N 48°22' W 123°25'611.6
2017-Nov-04 01:00N 48°23' W 123°17'917.1
2017-Nov-04 00:30N 48°32' W 123°13'919.0
2017-Nov-04 00:01N 48°41' W 123°16'917.0
2017-Nov-03 23:30N 48°46' W 123°05'612.8
2017-Nov-03 23:00N 48°52' W 123°06'918.2
2017-Nov-03 22:30N 48°58' W 123°16'815.6
2017-Nov-03 22:00N 49°05' W 123°22'510.1
2017-Nov-03 21:30N 49°07' W 123°16'713.4
2017-Nov-03 21:00N 49°07' W 123°06'1 1.7
2017-Nov-03 20:20N 49°08' W 123°04'0 0.0
2017-Nov-03 19:56N 49°08' W 123°04'0 0.0
2017-Nov-03 19:29N 49°08' W 123°04'0 0.0
2017-Nov-03 18:53N 49°08' W 123°04'0 0.0
2017-Nov-03 18:23N 49°08' W 123°04'0 0.0
2017-Nov-03 17:59N 49°08' W 123°04'0 0.0
2017-Nov-03 17:29N 49°08' W 123°04'0 0.0
2017-Nov-03 16:53N 49°08' W 123°04'0 0.0
2017-Nov-03 16:29N 49°08' W 123°04'0 0.0
2017-Nov-03 15:59N 49°08' W 123°04'0 0.0
2017-Nov-03 15:29N 49°08' W 123°04'0 0.0
2017-Nov-03 14:50N 49°08' W 123°04'0 0.0
2017-Nov-03 14:29N 49°08' W 123°04'0 0.0
2017-Nov-03 13:59N 49°08' W 123°04'0 0.0
2017-Nov-03 13:29N 49°08' W 123°04'0 0.0
2017-Nov-03 12:50N 49°08' W 123°04'0 0.0
2017-Nov-03 12:26N 49°08' W 123°04'0 0.0
2017-Nov-03 11:47N 49°08' W 123°04'0 0.1
2017-Nov-03 11:30N 49°08' W 123°04'1 2.2
2017-Nov-03 11:00N 49°07' W 123°05'612.7
2017-Nov-03 10:30N 49°08' W 123°15'510.2
2017-Nov-03 10:00N 49°05' W 123°22'5 9.4
2017-Nov-03 09:30N 49°02' W 123°17'918.8
2017-Nov-03 09:00N 48°55' W 123°07'917.2
2017-Nov-03 08:30N 48°48' W 123°00'817.2
2017-Nov-03 08:00N 48°43' W 123°11'714.0
2017-Nov-03 07:30N 48°36' W 123°13'816.1
2017-Nov-03 07:00N 48°28' W 123°10'815.5
2017-Nov-03 06:30N 48°22' W 123°17'611.2
2017-Nov-03 06:01N 48°20' W 123°24'816.0
2017-Nov-03 05:30N 48°11' W 123°25'610.8
2017-Nov-03 04:59N 48°10' W 123°17'1019.8
2017-Nov-03 04:30N 48°13' W 123°03'1020.6
2017-Nov-03 04:00N 48°12' W 122°48'1020.9
2017-Nov-03 03:30N 48°03' W 122°38'1121.2
2017-Nov-03 03:01N 47°55' W 122°29'1020.0
2017-Nov-03 02:30N 47°45' W 122°26'1020.1
2017-Nov-03 02:00N 47°35' W 122°27'1019.6
2017-Nov-03 01:30N 47°26' W 122°23'714.4
2017-Nov-03 01:00N 47°19' W 122°27'3 6.4
2017-Nov-03 00:30N 47°16' W 122°24'1 2.9
2017-Nov-03 00:00N 47°15' W 122°23'0 0.3
2017-Nov-02 23:30N 47°16' W 122°23'0 0.0
2017-Nov-02 23:00N 47°16' W 122°23'0 0.0
2017-Nov-02 22:30N 47°16' W 122°23'0 0.0
2017-Nov-02 22:00N 47°16' W 122°23'0 0.0
2017-Nov-02 21:30N 47°16' W 122°23'0 0.0
2017-Nov-02 21:00N 47°16' W 122°23'0 0.0
2017-Nov-02 20:30N 47°16' W 122°23'0 0.0
2017-Nov-02 20:00N 47°16' W 122°23'0 0.0
2017-Nov-02 19:30N 47°16' W 122°23'0 0.0
2017-Nov-02 19:00N 47°16' W 122°23'0 0.0
2017-Nov-02 15:00N 47°16' W 122°23'0 0.0
2017-Nov-02 07:39N 47°16' W 122°23'0 0.0
2017-Nov-02 07:27N 47°16' W 122°23'0 0.0
2017-Nov-02 06:57N 47°16' W 122°23'0 0.3
2017-Nov-02 06:27N 47°15' W 122°23'0 0.6
2017-Nov-02 05:59N 47°16' W 122°23'0 0.0
2017-Nov-02 05:29N 47°16' W 122°23'0 0.0
2017-Nov-02 04:59N 47°16' W 122°23'0 0.0
2017-Nov-02 04:29N 47°16' W 122°23'0 0.0
2017-Nov-02 03:59N 47°16' W 122°23'0 0.0
2017-Nov-02 03:29N 47°16' W 122°23'0 0.0
2017-Nov-02 02:59N 47°16' W 122°23'0 0.0
2017-Nov-02 02:29N 47°16' W 122°23'0 0.0
2017-Nov-02 01:59N 47°16' W 122°23'0 0.0
2017-Nov-02 01:29N 47°16' W 122°23'0 0.0
2017-Nov-02 00:59N 47°16' W 122°23'0 0.0
2017-Nov-02 00:20N 47°16' W 122°23'0 0.0
2017-Nov-01 23:56N 47°16' W 122°23'0 0.0
2017-Nov-01 23:26N 47°16' W 122°23'0 0.0
2017-Nov-01 22:59N 47°16' W 122°23'0 0.0
2017-Nov-01 22:26N 47°16' W 122°23'0 0.0
2017-Nov-01 21:47N 47°16' W 122°23'0 0.0
2017-Nov-01 21:14N 47°16' W 122°23'0 0.0
2017-Nov-01 20:56N 47°16' W 122°23'0 0.0
2017-Nov-01 20:29N 47°16' W 122°23'0 0.0
2017-Nov-01 19:59N 47°16' W 122°23'0 0.0
2017-Nov-01 19:29N 47°16' W 122°23'0 0.0
2017-Nov-01 18:53N 47°16' W 122°23'0 0.0
2017-Nov-01 18:29N 47°16' W 122°23'102 6.2
2017-Nov-01 02:00N 48°21' W 124°20'815.3
2017-Nov-01 01:30N 48°24' W 124°31'816.0
2017-Nov-01 01:00N 48°28' W 124°42'816.4
2017-Nov-01 00:30N 48°28' W 124°54'816.4
2017-Nov-01 00:00N 48°28' W 125°06'917.5
2017-Oct-31 23:30N 48°29' W 125°20'917.8
2017-Oct-31 23:01N 48°29' W 125°33'917.7
2017-Oct-31 22:30N 48°29' W 125°46'918.2
2017-Oct-31 22:00N 48°30' W 125°60'918.3
2017-Oct-31 21:30N 48°30' W 126°14'918.4
2017-Oct-31 21:00N 48°30' W 126°28'918.0
2017-Oct-31 20:30N 48°31' W 126°41'9415.6
2017-Oct-31 14:27N 48°58' W 128°58'818.9
2017-Oct-31 14:00N 49°03' W 129°08'919.0
2017-Oct-31 13:30N 49°09' W 129°20'1019.1
2017-Oct-31 13:00N 49°15' W 129°32'1018.9
2017-Oct-31 12:29N 49°21' W 129°44'918.7
2017-Oct-31 11:59N 49°26' W 129°55'918.6
2017-Oct-31 11:30N 49°31' W 130°07'918.4
2017-Oct-31 11:00N 49°36' W 130°18'1318.6
2017-Oct-31 10:17N 49°44' W 130°35'518.6
2017-Oct-31 10:00N 49°47' W 130°42'918.8
2017-Oct-31 09:30N 49°53' W 130°53'918.9
2017-Oct-31 09:01N 49°58' W 131°05'1019.0
2017-Oct-31 08:31N 50°04' W 131°17'918.8
2017-Oct-31 08:00N 50°09' W 131°29'918.7
2017-Oct-31 07:30N 50°15' W 131°41'918.8
2017-Oct-31 07:00N 50°20' W 131°53'918.6
2017-Oct-31 06:31N 50°26' W 132°05'918.6
2017-Oct-31 06:01N 50°31' W 132°17'1019.1
2017-Oct-31 05:31N 50°37' W 132°29'918.8
2017-Oct-31 05:01N 50°42' W 132°41'918.8
2017-Oct-31 04:30N 50°48' W 132°53'918.6
2017-Oct-31 04:00N 50°52' W 133°06'918.7
2017-Oct-31 03:30N 50°55' W 133°20'918.7
2017-Oct-31 03:00N 50°59' W 133°34'918.7
2017-Oct-31 02:31N 51°02' W 133°48'918.5
2017-Oct-31 02:00N 51°05' W 134°02'918.6
2017-Oct-31 01:31N 51°08' W 134°15'918.6
2017-Oct-31 01:00N 51°11' W 134°30'918.3
2017-Oct-31 00:31N 51°14' W 134°43'918.5
2017-Oct-31 00:00N 51°17' W 134°57'918.8
2017-Oct-30 23:31N 51°21' W 135°11'918.8
2017-Oct-30 23:01N 51°24' W 135°25'918.5
2017-Oct-30 22:30N 51°27' W 135°40'918.6
2017-Oct-30 22:00N 51°30' W 135°54'918.5
2017-Oct-30 21:30N 51°33' W 136°08'  
Track history (hours):
 
Tides and Currents Weather Stations Pressure Air Temp Water Temp Dewpoint Dewpoint Depression Visibility Wind Speed Wind Dir Waves Ship Positions

Nocc Atlantic

Last reported at 2017-Nov-08 05:59 UTC. Time now 2017-Nov-18 01:11 UTC.
Position N 31°56' W 117°50'.
Warning: this ship's position is 9 days out of date.

Length 200 m; draft 8.3 m.

Type: Cargo ship. MMSI: 259976000.

Date/timePositionNaut miles runAvg speedWind from/ knotsBaromVisibWave heightAir tempDewpointWater temp
2017-Nov-08 05:59N 31°56' W 117°50'4117.1
2017-Nov-08 03:37N 32°28' W 117°22'217.3
2017-Nov-08 03:29N 32°30' W 117°20'917.2
2017-Nov-08 03:00N 32°37' W 117°14'511.2
2017-Nov-08 02:30N 32°42' W 117°13'6 9.7
2017-Nov-08 01:54N 32°39' W 117°07'0 0.1
2017-Nov-07 23:15N 32°39' W 117°07'0 0.0
2017-Nov-07 22:57N 32°39' W 117°07'0 0.0
2017-Nov-07 16:51N 32°39' W 117°07'0 0.0
2017-Nov-07 14:09N 32°39' W 117°07'0 0.7
2017-Nov-07 14:00N 32°39' W 117°07'2 5.0
2017-Nov-07 13:30N 32°41' W 117°09'4 8.1
2017-Nov-07 13:00N 32°41' W 117°14'4 7.7
2017-Nov-07 12:29N 32°37' W 117°14'3 6.5
2017-Nov-07 12:00N 32°37' W 117°18'4 8.6
2017-Nov-07 11:30N 32°39' W 117°22'510.9
2017-Nov-07 11:00N 32°41' W 117°28'611.2
2017-Nov-07 10:30N 32°44' W 117°34'510.9
2017-Nov-07 10:00N 32°46' W 117°40'510.9
2017-Nov-07 09:30N 32°49' W 117°46'510.9
2017-Nov-07 09:00N 32°51' W 117°52'611.4
2017-Nov-07 08:30N 32°53' W 117°58'511.0
2017-Nov-07 08:00N 32°56' W 118°04'611.4
2017-Nov-07 07:30N 32°58' W 118°10'611.3
2017-Nov-07 06:56N 33°01' W 118°17'511.3
2017-Nov-07 06:30N 33°03' W 118°22'1311.2
2017-Nov-07 05:20N 33°08' W 118°36'411.2
2017-Nov-07 05:00N 33°09' W 118°41'611.1
2017-Nov-07 04:27N 33°11' W 118°48'511.2
2017-Nov-07 04:00N 33°13' W 118°53'711.2
2017-Nov-07 03:23N 33°15' W 119°01'411.2
2017-Nov-07 03:00N 33°16' W 119°06'611.8
2017-Nov-07 02:30N 33°18' W 119°13'612.1
2017-Nov-07 02:00N 33°20' W 119°19'611.8
2017-Nov-07 01:30N 33°23' W 119°26'611.6
2017-Nov-07 01:00N 33°25' W 119°32'510.2
2017-Nov-07 00:30N 33°28' W 119°38'713.9
2017-Nov-07 00:00N 33°31' W 119°45'713.4
2017-Nov-06 23:30N 33°34' W 119°52'713.3
2017-Nov-06 23:00N 33°37' W 119°59'713.3
2017-Nov-06 22:30N 33°40' W 120°07'813.2
2017-Nov-06 21:52N 33°43' W 120°16'513.2
2017-Nov-06 21:29N 33°45' W 120°21'613.0
2017-Nov-06 21:00N 33°48' W 120°28'612.9
2017-Nov-06 20:30N 33°51' W 120°35'27814.6
2017-Nov-06 01:26N 37°43' W 123°43'715.6
2017-Nov-06 00:58N 37°49' W 123°48'715.6
2017-Nov-06 00:30N 37°55' W 123°53'815.5
2017-Nov-06 00:00N 38°02' W 123°58'1015.7
2017-Nov-05 23:24N 38°11' W 124°03'615.9
2017-Nov-05 23:00N 38°16' W 124°07'816.1
2017-Nov-05 22:30N 38°23' W 124°12'43914.8
2017-Nov-04 16:49N 45°39' W 125°18'515.6
2017-Nov-04 16:30N 45°44' W 125°18'815.7
2017-Nov-04 16:01N 45°52' W 125°18'815.4
2017-Nov-04 15:30N 45°59' W 125°18'815.6
2017-Nov-04 15:00N 46°07' W 125°18'815.8
2017-Nov-04 14:31N 46°15' W 125°18'815.6
2017-Nov-04 14:00N 46°23' W 125°18'815.6
2017-Nov-04 13:28N 46°31' W 125°18'715.7
2017-Nov-04 13:00N 46°39' W 125°18'815.5
2017-Nov-04 12:30N 46°46' W 125°18'815.6
2017-Nov-04 12:00N 46°54' W 125°18'8215.2
2017-Nov-04 06:35N 48°16' W 125°14'217.4
2017-Nov-04 06:29N 48°18' W 125°13'715.0
2017-Nov-04 05:59N 48°25' W 125°07'714.7
2017-Nov-04 05:30N 48°31' W 125°02'816.6
2017-Nov-04 05:00N 48°30' W 124°49'917.4
2017-Nov-04 04:30N 48°29' W 124°36'918.0
2017-Nov-04 04:00N 48°25' W 124°24'918.1
2017-Nov-04 03:30N 48°21' W 124°11'918.3
2017-Nov-04 03:00N 48°18' W 123°59'917.9
2017-Nov-04 02:30N 48°16' W 123°45'918.3
2017-Nov-04 02:00N 48°15' W 123°32'816.7
2017-Nov-04 01:30N 48°22' W 123°25'611.6
2017-Nov-04 01:00N 48°23' W 123°17'917.1
2017-Nov-04 00:30N 48°32' W 123°13'919.0
2017-Nov-04 00:01N 48°41' W 123°16'917.0
2017-Nov-03 23:30N 48°46' W 123°05'612.8
2017-Nov-03 23:00N 48°52' W 123°06'918.2
2017-Nov-03 22:30N 48°58' W 123°16'815.6
2017-Nov-03 22:00N 49°05' W 123°22'510.1
2017-Nov-03 21:30N 49°07' W 123°16'713.4
2017-Nov-03 21:00N 49°07' W 123°06'1 1.7
2017-Nov-03 20:20N 49°08' W 123°04'0 0.0
2017-Nov-03 19:56N 49°08' W 123°04'0 0.0
2017-Nov-03 19:29N 49°08' W 123°04'0 0.0
2017-Nov-03 18:53N 49°08' W 123°04'0 0.0
2017-Nov-03 18:23N 49°08' W 123°04'0 0.0
2017-Nov-03 17:59N 49°08' W 123°04'0 0.0
2017-Nov-03 17:29N 49°08' W 123°04'0 0.0
2017-Nov-03 16:53N 49°08' W 123°04'0 0.0
2017-Nov-03 16:29N 49°08' W 123°04'0 0.0
2017-Nov-03 15:59N 49°08' W 123°04'0 0.0
2017-Nov-03 15:29N 49°08' W 123°04'0 0.0
2017-Nov-03 14:50N 49°08' W 123°04'0 0.0
2017-Nov-03 14:29N 49°08' W 123°04'0 0.0
2017-Nov-03 13:59N 49°08' W 123°04'0 0.0
2017-Nov-03 13:29N 49°08' W 123°04'0 0.0
2017-Nov-03 12:50N 49°08' W 123°04'0 0.0
2017-Nov-03 12:26N 49°08' W 123°04'0 0.0
2017-Nov-03 11:47N 49°08' W 123°04'0 0.1
2017-Nov-03 11:30N 49°08' W 123°04'1 2.2
2017-Nov-03 11:00N 49°07' W 123°05'612.7
2017-Nov-03 10:30N 49°08' W 123°15'510.2
2017-Nov-03 10:00N 49°05' W 123°22'5 9.4
2017-Nov-03 09:30N 49°02' W 123°17'918.8
2017-Nov-03 09:00N 48°55' W 123°07'917.2
2017-Nov-03 08:30N 48°48' W 123°00'817.2
2017-Nov-03 08:00N 48°43' W 123°11'714.0
2017-Nov-03 07:30N 48°36' W 123°13'816.1
2017-Nov-03 07:00N 48°28' W 123°10'815.5
2017-Nov-03 06:30N 48°22' W 123°17'611.2
2017-Nov-03 06:01N 48°20' W 123°24'816.0
2017-Nov-03 05:30N 48°11' W 123°25'610.8
2017-Nov-03 04:59N 48°10' W 123°17'1019.8
2017-Nov-03 04:30N 48°13' W 123°03'1020.6
2017-Nov-03 04:00N 48°12' W 122°48'1020.9
2017-Nov-03 03:30N 48°03' W 122°38'1121.2
2017-Nov-03 03:01N 47°55' W 122°29'1020.0
2017-Nov-03 02:30N 47°45' W 122°26'1020.1
2017-Nov-03 02:00N 47°35' W 122°27'1019.6
2017-Nov-03 01:30N 47°26' W 122°23'714.4
2017-Nov-03 01:00N 47°19' W 122°27'3 6.4
2017-Nov-03 00:30N 47°16' W 122°24'1 2.9
2017-Nov-03 00:00N 47°15' W 122°23'0 0.3
2017-Nov-02 23:30N 47°16' W 122°23'0 0.0
2017-Nov-02 23:00N 47°16' W 122°23'0 0.0
2017-Nov-02 22:30N 47°16' W 122°23'0 0.0
2017-Nov-02 22:00N 47°16' W 122°23'0 0.0
2017-Nov-02 21:30N 47°16' W 122°23'0 0.0
2017-Nov-02 21:00N 47°16' W 122°23'0 0.0
2017-Nov-02 20:30N 47°16' W 122°23'0 0.0
2017-Nov-02 20:00N 47°16' W 122°23'0 0.0
2017-Nov-02 19:30N 47°16' W 122°23'0 0.0
2017-Nov-02 19:00N 47°16' W 122°23'0 0.0
2017-Nov-02 15:00N 47°16' W 122°23'0 0.0
2017-Nov-02 07:39N 47°16' W 122°23'0 0.0
2017-Nov-02 07:27N 47°16' W 122°23'0 0.0
2017-Nov-02 06:57N 47°16' W 122°23'0 0.3
2017-Nov-02 06:27N 47°15' W 122°23'0 0.6
2017-Nov-02 05:59N 47°16' W 122°23'0 0.0
2017-Nov-02 05:29N 47°16' W 122°23'0 0.0
2017-Nov-02 04:59N 47°16' W 122°23'0 0.0
2017-Nov-02 04:29N 47°16' W 122°23'0 0.0
2017-Nov-02 03:59N 47°16' W 122°23'0 0.0
2017-Nov-02 03:29N 47°16' W 122°23'0 0.0
2017-Nov-02 02:59N 47°16' W 122°23'0 0.0
2017-Nov-02 02:29N 47°16' W 122°23'0 0.0
2017-Nov-02 01:59N 47°16' W 122°23'0 0.0
2017-Nov-02 01:29N 47°16' W 122°23'0 0.0
2017-Nov-02 00:59N 47°16' W 122°23'0 0.0
2017-Nov-02 00:20N 47°16' W 122°23'0 0.0
2017-Nov-01 23:56N 47°16' W 122°23'0 0.0
2017-Nov-01 23:26N 47°16' W 122°23'0 0.0
2017-Nov-01 22:59N 47°16' W 122°23'0 0.0
2017-Nov-01 22:26N 47°16' W 122°23'0 0.0
2017-Nov-01 21:47N 47°16' W 122°23'0 0.0
2017-Nov-01 21:14N 47°16' W 122°23'0 0.0
2017-Nov-01 20:56N 47°16' W 122°23'0 0.0
2017-Nov-01 20:29N 47°16' W 122°23'0 0.0
2017-Nov-01 19:59N 47°16' W 122°23'0 0.0
2017-Nov-01 19:29N 47°16' W 122°23'0 0.0
2017-Nov-01 18:53N 47°16' W 122°23'0 0.0
2017-Nov-01 18:29N 47°16' W 122°23'102 6.2
2017-Nov-01 02:00N 48°21' W 124°20'815.3
2017-Nov-01 01:30N 48°24' W 124°31'816.0
2017-Nov-01 01:00N 48°28' W 124°42'816.4
2017-Nov-01 00:30N 48°28' W 124°54'816.4
2017-Nov-01 00:00N 48°28' W 125°06'917.5
2017-Oct-31 23:30N 48°29' W 125°20'917.8
2017-Oct-31 23:01N 48°29' W 125°33'917.7
2017-Oct-31 22:30N 48°29' W 125°46'918.2
2017-Oct-31 22:00N 48°30' W 125°60'918.3
2017-Oct-31 21:30N 48°30' W 126°14'918.4
2017-Oct-31 21:00N 48°30' W 126°28'918.0
2017-Oct-31 20:30N 48°31' W 126°41'9415.6
2017-Oct-31 14:27N 48°58' W 128°58'818.9
2017-Oct-31 14:00N 49°03' W 129°08'919.0
2017-Oct-31 13:30N 49°09' W 129°20'1019.1
2017-Oct-31 13:00N 49°15' W 129°32'1018.9
2017-Oct-31 12:29N 49°21' W 129°44'918.7
2017-Oct-31 11:59N 49°26' W 129°55'918.6
2017-Oct-31 11:30N 49°31' W 130°07'918.4
2017-Oct-31 11:00N 49°36' W 130°18'1318.6
2017-Oct-31 10:17N 49°44' W 130°35'518.6
2017-Oct-31 10:00N 49°47' W 130°42'918.8
2017-Oct-31 09:30N 49°53' W 130°53'918.9
2017-Oct-31 09:01N 49°58' W 131°05'1019.0
2017-Oct-31 08:31N 50°04' W 131°17'918.8
2017-Oct-31 08:00N 50°09' W 131°29'918.7
2017-Oct-31 07:30N 50°15' W 131°41'918.8
2017-Oct-31 07:00N 50°20' W 131°53'918.6
2017-Oct-31 06:31N 50°26' W 132°05'918.6
2017-Oct-31 06:01N 50°31' W 132°17'1019.1
2017-Oct-31 05:31N 50°37' W 132°29'918.8
2017-Oct-31 05:01N 50°42' W 132°41'918.8
2017-Oct-31 04:30N 50°48' W 132°53'918.6
2017-Oct-31 04:00N 50°52' W 133°06'918.7
2017-Oct-31 03:30N 50°55' W 133°20'918.7
2017-Oct-31 03:00N 50°59' W 133°34'918.7
2017-Oct-31 02:31N 51°02' W 133°48'918.5
2017-Oct-31 02:00N 51°05' W 134°02'918.6
2017-Oct-31 01:31N 51°08' W 134°15'918.6
2017-Oct-31 01:00N 51°11' W 134°30'918.3
2017-Oct-31 00:31N 51°14' W 134°43'918.5
2017-Oct-31 00:00N 51°17' W 134°57'918.8
2017-Oct-30 23:31N 51°21' W 135°11'918.8
2017-Oct-30 23:01N 51°24' W 135°25'918.5
2017-Oct-30 22:30N 51°27' W 135°40'918.6
2017-Oct-30 22:00N 51°30' W 135°54'918.5
2017-Oct-30 21:30N 51°33' W 136°08'  

Dump ship's entire track history